createdAt,value
2017-07-11T00:00:46.946Z,86.12
2017-07-11T00:03:16.381Z,86.81
2017-07-11T00:05:45.835Z,85.51
2017-07-11T00:08:15.289Z,86.12
2017-07-11T00:10:44.731Z,86.28
2017-07-11T00:13:14.024Z,85.80
2017-07-11T00:15:43.290Z,86.22
2017-07-11T00:18:12.730Z,86.91
2017-07-11T00:20:42.194Z,87.12
2017-07-11T00:23:11.661Z,86.74
2017-07-11T00:25:41.101Z,86.40
2017-07-11T00:28:10.540Z,86.32
2017-07-11T00:30:40.048Z,86.96
2017-07-11T00:33:09.500Z,86.72
2017-07-11T00:35:38.926Z,86.44
2017-07-11T00:38:08.379Z,86.75
2017-07-11T00:40:37.823Z,86.13
2017-07-11T00:43:07.267Z,86.33
2017-07-11T00:45:36.714Z,86.84
2017-07-11T00:48:06.173Z,87.24
2017-07-11T00:50:35.621Z,87.42
2017-07-11T00:53:04.886Z,87.26
2017-07-11T00:55:34.342Z,87.68
2017-07-11T00:58:04.814Z,88.56
2017-07-11T01:00:34.253Z,88.62
2017-07-11T01:03:03.707Z,89.36
2017-07-11T01:05:33.153Z,89.05
2017-07-11T01:08:02.619Z,89.25
2017-07-11T01:10:32.073Z,89.43
2017-07-11T01:13:01.562Z,89.90
2017-07-11T01:15:31.022Z,89.94
2017-07-11T01:18:00.480Z,90.22
2017-07-11T01:20:29.943Z,89.14
2017-07-11T01:22:59.385Z,88.88
2017-07-11T01:25:28.825Z,88.46
2017-07-11T01:27:58.278Z,88.84
2017-07-11T01:30:27.726Z,89.42
2017-07-11T01:32:57.170Z,90.06
2017-07-11T01:35:26.631Z,90.11
2017-07-11T01:37:56.087Z,88.66
2017-07-11T01:40:25.550Z,89.58
2017-07-11T01:42:54.991Z,89.58
2017-07-11T01:45:24.447Z,89.81
2017-07-11T01:47:53.916Z,89.24
2017-07-11T01:50:23.358Z,88.93
2017-07-11T01:52:52.806Z,88.24
2017-07-11T01:55:22.246Z,89.40
2017-07-11T01:57:51.727Z,88.92
2017-07-11T02:00:20.810Z,88.08
2017-07-11T02:02:50.085Z,89.12
2017-07-11T02:05:19.196Z,88.78
2017-07-11T02:07:48.653Z,89.01
2017-07-11T02:10:18.123Z,89.20
2017-07-11T02:12:47.580Z,89.25
2017-07-11T02:15:17.022Z,89.39
2017-07-11T02:17:46.481Z,88.32
2017-07-11T02:20:15.938Z,87.80
2017-07-11T02:22:45.373Z,88.21
2017-07-11T02:25:14.817Z,88.33
2017-07-11T02:27:44.285Z,89.02
2017-07-11T02:30:13.730Z,88.11
2017-07-11T02:32:43.275Z,88.35
2017-07-11T02:35:12.721Z,88.58
2017-07-11T02:37:42.165Z,87.87
2017-07-11T02:40:11.605Z,87.80
2017-07-11T02:42:41.078Z,87.33
2017-07-11T02:45:10.526Z,87.55
2017-07-11T02:47:39.965Z,87.42
2017-07-11T02:50:09.414Z,86.70
2017-07-11T02:52:38.860Z,86.19
2017-07-11T02:55:08.344Z,85.93
2017-07-11T02:57:37.791Z,85.78
2017-07-11T03:00:07.230Z,84.89
2017-07-11T03:02:36.487Z,85.95
2017-07-11T03:05:05.925Z,85.51
2017-07-11T03:07:35.372Z,86.00
2017-07-11T03:10:04.810Z,86.31
2017-07-11T03:12:34.294Z,87.17
2017-07-11T03:15:03.727Z,87.32
2017-07-11T03:17:33.172Z,87.52
2017-07-11T03:20:02.646Z,88.03
2017-07-11T03:22:32.110Z,87.28
2017-07-11T03:25:01.550Z,88.56
2017-07-11T03:27:30.998Z,88.95
2017-07-11T03:30:00.438Z,86.77
2017-07-11T03:32:29.725Z,87.74
2017-07-11T03:34:59.181Z,87.40
2017-07-11T03:37:28.629Z,88.11
2017-07-11T03:39:58.065Z,87.93
2017-07-11T03:42:27.520Z,87.01
2017-07-11T03:44:56.970Z,87.31
2017-07-11T03:47:26.410Z,87.45
2017-07-11T03:49:55.866Z,87.56
2017-07-11T03:52:25.321Z,87.13
2017-07-11T03:54:54.755Z,87.67
2017-07-11T03:57:24.201Z,87.97
2017-07-11T03:59:53.997Z,88.35
2017-07-11T04:02:23.719Z,87.56
2017-07-11T04:04:53.190Z,87.49
2017-07-11T04:07:22.649Z,87.20
2017-07-11T04:09:52.101Z,87.53
2017-07-11T04:12:21.537Z,88.10
2017-07-11T04:14:51.063Z,87.59
2017-07-11T04:17:20.898Z,87.55
2017-07-11T04:19:50.350Z,86.46
2017-07-11T04:22:19.648Z,87.02
2017-07-11T04:24:49.078Z,86.95
2017-07-11T04:27:18.720Z,86.50
2017-07-11T04:29:48.165Z,88.19
2017-07-11T04:32:17.607Z,88.13
2017-07-11T04:34:47.060Z,86.25
2017-07-11T04:37:16.521Z,87.12
2017-07-11T04:39:45.953Z,85.99
2017-07-11T04:42:15.409Z,85.01
2017-07-11T04:44:44.878Z,84.46
2017-07-11T04:47:14.309Z,83.97
2017-07-11T04:49:43.759Z,82.65
2017-07-11T04:52:13.213Z,83.07
2017-07-11T04:54:42.671Z,82.84
2017-07-11T04:57:12.108Z,81.79
2017-07-11T04:59:41.578Z,82.29
2017-07-11T05:02:11.017Z,80.45
2017-07-11T05:04:40.463Z,81.37
2017-07-11T05:07:09.910Z,79.97
2017-07-11T05:09:39.365Z,80.65
2017-07-11T05:12:08.813Z,79.58
2017-07-11T05:14:38.257Z,79.95
2017-07-11T05:17:07.706Z,80.51
2017-07-11T05:19:37.153Z,79.86
2017-07-11T05:22:06.613Z,79.89
2017-07-11T05:24:36.058Z,79.84
2017-07-11T05:27:05.773Z,78.10
2017-07-11T05:29:35.246Z,79.46
2017-07-11T05:32:04.701Z,78.85
2017-07-11T05:34:34.157Z,79.83
2017-07-11T05:37:03.616Z,78.14
2017-07-11T05:39:33.061Z,77.42
2017-07-11T05:42:02.525Z,78.71
2017-07-11T05:44:32.000Z,78.61
2017-07-11T05:47:01.418Z,78.04
2017-07-11T05:49:30.869Z,77.30
2017-07-11T05:52:00.318Z,76.13
2017-07-11T05:54:29.754Z,77.63
2017-07-11T05:56:59.205Z,76.21
2017-07-11T05:59:28.654Z,75.28
2017-07-11T06:01:58.110Z,76.18
2017-07-11T06:04:27.598Z,77.77
2017-07-11T06:06:57.026Z,77.25
2017-07-11T06:09:26.469Z,76.25
2017-07-11T06:11:55.912Z,76.30
2017-07-11T06:14:25.359Z,75.87
2017-07-11T06:16:54.855Z,76.32
2017-07-11T06:19:24.293Z,75.96
2017-07-11T06:21:53.747Z,76.14
2017-07-11T06:24:23.189Z,74.50
2017-07-11T06:26:54.190Z,75.09
2017-07-11T06:29:23.641Z,75.33
2017-07-11T06:31:53.088Z,75.69
2017-07-11T06:34:22.525Z,75.42
2017-07-11T06:36:53.053Z,76.39
2017-07-11T06:39:22.496Z,75.87
2017-07-11T06:41:51.961Z,76.95
2017-07-11T06:44:21.423Z,76.33
2017-07-11T06:46:50.869Z,76.12
2017-07-11T06:49:20.326Z,76.04
2017-07-11T06:51:49.791Z,76.08
2017-07-11T06:54:19.260Z,73.64
2017-07-11T06:56:48.720Z,73.36
2017-07-11T06:59:18.182Z,72.35
2017-07-11T07:01:47.634Z,73.59
2017-07-11T07:04:17.082Z,71.36
2017-07-11T07:06:46.514Z,72.32
2017-07-11T07:09:15.953Z,69.35
2017-07-11T07:11:45.411Z,70.77
2017-07-11T07:14:14.863Z,70.58
2017-07-11T07:16:44.314Z,72.10
2017-07-11T07:19:13.777Z,69.79
2017-07-11T07:21:43.239Z,66.64
2017-07-11T07:24:12.686Z,66.40
2017-07-11T07:26:42.137Z,64.21
2017-07-11T07:29:11.606Z,64.97
2017-07-11T07:31:41.167Z,64.41
2017-07-11T07:34:10.642Z,62.59
2017-07-11T07:36:40.072Z,64.02
2017-07-11T07:39:09.541Z,64.75
2017-07-11T07:41:38.986Z,64.85
2017-07-11T07:44:08.426Z,63.30
2017-07-11T07:46:37.884Z,63.31
2017-07-11T07:49:07.338Z,62.40
2017-07-11T07:51:36.797Z,62.79
2017-07-11T07:54:06.239Z,63.50
2017-07-11T07:56:35.691Z,58.99
2017-07-11T07:59:05.124Z,60.68
2017-07-11T08:01:34.630Z,58.81
2017-07-11T08:04:04.083Z,59.62
2017-07-11T08:06:33.526Z,58.72
2017-07-11T08:09:02.971Z,58.15
2017-07-11T08:11:32.429Z,58.92
2017-07-11T08:14:01.879Z,57.81
2017-07-11T08:16:31.331Z,57.04
2017-07-11T08:19:00.766Z,59.09
2017-07-11T08:21:30.210Z,58.77
2017-07-11T08:23:59.670Z,57.75
2017-07-11T08:26:29.106Z,58.44
2017-07-11T08:28:58.553Z,57.70
2017-07-11T08:31:28.001Z,57.60
2017-07-11T08:33:57.458Z,57.32
2017-07-11T08:36:26.919Z,55.92
2017-07-11T08:38:56.379Z,55.32
2017-07-11T08:41:25.828Z,56.23
2017-07-11T08:43:55.256Z,56.87
2017-07-11T08:46:24.719Z,55.69
2017-07-11T08:48:54.179Z,55.10
2017-07-11T08:51:23.622Z,54.42
2017-07-11T08:53:53.086Z,53.79
2017-07-11T08:56:22.529Z,54.03
2017-07-11T08:58:52.401Z,53.56
2017-07-11T09:01:21.842Z,51.81
2017-07-11T09:03:51.291Z,53.40
2017-07-11T09:06:20.737Z,53.95
2017-07-11T09:08:50.226Z,54.06
2017-07-11T09:11:19.682Z,54.14
2017-07-11T09:13:49.118Z,53.52
2017-07-11T09:16:18.567Z,53.79
2017-07-11T09:25:35.254Z,54.88
2017-07-11T09:28:04.756Z,54.79
2017-07-11T09:30:34.407Z,52.53
2017-07-11T09:33:03.860Z,53.20
2017-07-11T09:35:33.327Z,53.03
2017-07-11T09:38:02.792Z,52.92
2017-07-11T09:40:32.277Z,52.67
2017-07-11T09:43:01.735Z,51.95
2017-07-11T09:45:31.181Z,50.64
2017-07-11T09:48:00.625Z,51.66
2017-07-11T09:50:30.069Z,52.23
2017-07-11T09:52:59.517Z,52.39
2017-07-11T09:55:28.961Z,50.81
2017-07-11T09:57:58.552Z,50.05
2017-07-11T10:00:28.018Z,49.79
2017-07-11T10:02:57.287Z,49.28
2017-07-11T10:05:26.743Z,50.40
2017-07-11T10:07:56.188Z,50.52
2017-07-11T10:10:25.630Z,49.66
2017-07-11T10:12:55.078Z,48.76
2017-07-11T10:15:24.530Z,49.59
2017-07-11T10:17:53.982Z,49.28
2017-07-11T10:20:23.434Z,49.08
2017-07-11T10:22:52.896Z,48.04
2017-07-11T10:25:22.360Z,46.97
2017-07-11T10:27:51.806Z,48.28
2017-07-11T10:30:21.242Z,48.19
2017-07-11T10:32:50.693Z,46.50
2017-07-11T10:35:20.143Z,47.69
2017-07-11T10:37:49.617Z,46.93
2017-07-11T10:40:19.057Z,46.88
2017-07-11T10:42:48.511Z,46.39
2017-07-11T10:45:17.967Z,45.55
2017-07-11T10:47:47.417Z,46.36
2017-07-11T10:50:16.877Z,46.47
2017-07-11T10:52:46.352Z,45.74
2017-07-11T10:55:15.807Z,46.28
2017-07-11T10:57:45.261Z,46.87
2017-07-11T11:00:14.707Z,46.14
2017-07-11T11:02:44.199Z,45.87
2017-07-11T11:05:13.654Z,44.30
2017-07-11T11:07:43.103Z,45.17
2017-07-11T11:10:12.567Z,44.19
2017-07-11T11:12:42.024Z,43.78
2017-07-11T11:15:11.489Z,42.17
2017-07-11T11:17:40.947Z,42.70
2017-07-11T11:20:10.509Z,42.46
2017-07-11T11:22:39.938Z,42.16
2017-07-11T11:25:09.401Z,42.31
2017-07-11T11:27:38.853Z,41.84
2017-07-11T11:30:08.305Z,42.63
2017-07-11T11:32:37.578Z,43.13
2017-07-11T11:35:07.075Z,40.34
2017-07-11T11:37:36.517Z,41.50
2017-07-11T11:40:05.974Z,39.82
2017-07-11T11:42:35.443Z,39.73
2017-07-11T11:45:04.880Z,41.61
2017-07-11T11:47:34.170Z,40.09
2017-07-11T11:50:03.612Z,41.23
2017-07-11T11:52:33.050Z,40.56
2017-07-11T11:55:02.513Z,41.23
2017-07-11T11:57:31.963Z,41.14
2017-07-11T12:00:01.401Z,42.04
2017-07-11T12:02:30.882Z,41.46
2017-07-11T12:05:00.340Z,40.14
2017-07-11T12:07:29.776Z,41.75
2017-07-11T12:09:59.392Z,41.34
2017-07-11T12:12:28.869Z,41.19
2017-07-11T12:14:58.318Z,41.49
2017-07-11T12:17:27.792Z,41.10
2017-07-11T12:19:57.233Z,40.93
2017-07-11T12:22:26.676Z,38.79
2017-07-11T12:24:56.140Z,40.80
2017-07-11T12:27:25.593Z,40.29
2017-07-11T12:29:55.042Z,36.60
2017-07-11T12:32:24.496Z,36.46
2017-07-11T12:34:54.019Z,37.41
2017-07-11T12:37:23.465Z,35.39
2017-07-11T12:39:53.035Z,31.71
2017-07-11T12:42:22.486Z,31.96
2017-07-11T12:44:51.914Z,31.71
2017-07-11T12:47:21.366Z,32.70
2017-07-11T12:49:50.831Z,30.68
2017-07-11T12:52:20.468Z,31.53
2017-07-11T12:54:49.995Z,31.25
2017-07-11T12:57:19.423Z,29.84
2017-07-11T12:59:48.898Z,29.68
2017-07-11T13:02:18.357Z,28.22
2017-07-11T13:04:47.798Z,28.03
2017-07-11T13:07:17.253Z,31.46
2017-07-11T13:09:46.705Z,32.17
2017-07-11T13:12:16.167Z,32.19
2017-07-11T13:14:45.633Z,32.75
2017-07-11T13:17:15.096Z,35.34
2017-07-11T13:19:44.559Z,31.72
2017-07-11T13:22:14.277Z,34.75
2017-07-11T13:24:43.726Z,36.05
2017-07-11T13:27:13.169Z,34.90
2017-07-11T13:29:42.674Z,32.04
2017-07-11T13:32:12.146Z,29.53
2017-07-11T13:34:41.244Z,29.50
2017-07-11T13:37:10.683Z,28.44
2017-07-11T13:39:40.242Z,27.79
2017-07-11T13:42:09.683Z,25.60
2017-07-11T13:44:39.118Z,27.05
2017-07-11T13:47:08.592Z,26.43
2017-07-11T13:49:38.055Z,27.59
2017-07-11T13:52:07.362Z,28.57
2017-07-11T13:54:36.790Z,31.51
2017-07-11T13:57:06.242Z,32.04
2017-07-11T13:59:35.681Z,29.82
2017-07-11T14:02:05.204Z,26.87
2017-07-11T14:04:34.653Z,27.77
2017-07-11T14:07:04.106Z,31.28
2017-07-11T14:09:33.589Z,31.57
2017-07-11T14:12:03.051Z,33.05
2017-07-11T14:14:32.491Z,32.01
2017-07-11T14:17:01.961Z,33.63
2017-07-11T14:19:31.425Z,30.58
2017-07-11T14:22:00.862Z,28.41
2017-07-11T14:24:30.341Z,28.50
2017-07-11T14:26:59.774Z,27.57
2017-07-11T14:29:29.222Z,27.34
2017-07-11T14:31:58.676Z,26.66
2017-07-11T14:34:28.132Z,26.49
2017-07-11T14:36:57.586Z,26.93
2017-07-11T14:39:27.057Z,26.91
2017-07-11T14:41:56.584Z,27.98
2017-07-11T14:44:26.060Z,27.06
2017-07-11T14:46:55.517Z,25.63
2017-07-11T14:49:24.961Z,24.85
2017-07-11T14:51:54.417Z,24.38
2017-07-11T14:54:23.893Z,26.57
2017-07-11T14:56:53.324Z,26.20
2017-07-11T14:59:22.789Z,24.78
2017-07-11T15:01:52.242Z,24.49
2017-07-11T15:04:21.706Z,24.15
2017-07-11T15:06:51.166Z,24.26
2017-07-11T15:09:20.632Z,24.10
2017-07-11T15:11:50.141Z,26.06
2017-07-11T15:14:19.593Z,23.75
2017-07-11T15:16:49.083Z,26.26
2017-07-11T15:19:18.527Z,25.62
2017-07-11T15:21:48.041Z,25.65
2017-07-11T15:24:17.634Z,27.11
2017-07-11T15:26:47.092Z,27.22
2017-07-11T15:29:16.547Z,25.96
2017-07-11T15:31:45.991Z,24.34
2017-07-11T15:34:15.458Z,23.19
2017-07-11T15:36:44.919Z,24.26
2017-07-11T15:39:14.376Z,26.88
2017-07-11T15:41:43.819Z,26.45
2017-07-11T15:44:13.262Z,27.18
2017-07-11T15:46:42.728Z,26.12
2017-07-11T15:49:12.173Z,25.75
2017-07-11T15:51:41.658Z,24.74
2017-07-11T15:54:11.117Z,27.66
2017-07-11T15:56:40.579Z,31.02
2017-07-11T15:59:10.037Z,29.40
2017-07-11T16:01:39.478Z,29.38
2017-07-11T16:04:08.934Z,27.84
2017-07-11T16:06:38.386Z,25.82
2017-07-11T16:09:07.839Z,26.52
2017-07-11T16:11:37.297Z,27.29
2017-07-11T16:14:06.817Z,25.64
2017-07-11T16:16:36.258Z,26.42
2017-07-11T16:19:05.703Z,26.63
2017-07-11T16:21:35.138Z,24.22
2017-07-11T16:24:04.592Z,23.31
2017-07-11T16:26:34.049Z,23.97
2017-07-11T16:29:03.481Z,23.74
2017-07-11T16:31:32.928Z,24.57
2017-07-11T16:34:02.382Z,24.47
2017-07-11T16:36:31.824Z,25.49
2017-07-11T16:39:02.036Z,24.83
2017-07-11T16:41:31.518Z,26.96
2017-07-11T16:44:00.991Z,27.22
2017-07-11T16:46:30.534Z,28.77
2017-07-11T16:49:00.009Z,30.43
2017-07-11T16:51:29.461Z,31.24
2017-07-11T16:53:58.924Z,31.84
2017-07-11T16:56:28.357Z,32.05
2017-07-11T16:58:57.820Z,32.74
2017-07-11T17:01:27.278Z,33.91
2017-07-11T17:03:56.731Z,33.67
2017-07-11T17:06:26.180Z,35.10
2017-07-11T17:08:55.644Z,35.19
2017-07-11T17:11:25.096Z,35.32
2017-07-11T17:13:54.677Z,35.38
2017-07-11T17:16:24.123Z,35.33
2017-07-11T17:18:53.564Z,33.11
2017-07-11T17:21:23.052Z,30.75
2017-07-11T17:23:52.490Z,28.74
2017-07-11T17:26:21.975Z,27.81
2017-07-11T17:28:51.428Z,29.50
2017-07-11T17:31:20.875Z,31.74
2017-07-11T17:33:50.353Z,31.82
2017-07-11T17:36:19.810Z,33.58
2017-07-11T17:38:49.254Z,34.08
2017-07-11T17:41:18.695Z,33.25
2017-07-11T17:43:48.142Z,32.47
2017-07-11T17:46:17.609Z,30.82
2017-07-11T17:48:47.090Z,30.46
2017-07-11T17:51:16.339Z,30.78
2017-07-11T17:53:45.805Z,30.99
2017-07-11T17:56:15.245Z,32.38
2017-07-11T17:58:44.733Z,33.08
2017-07-11T18:01:14.189Z,33.99
2017-07-11T18:03:43.634Z,34.90
2017-07-11T18:06:13.083Z,35.77
2017-07-11T18:08:42.541Z,37.05
2017-07-11T18:11:11.978Z,37.07
2017-07-11T18:13:41.419Z,37.58
2017-07-11T18:16:10.885Z,37.42
2017-07-11T18:18:40.325Z,37.76
2017-07-11T18:21:09.923Z,37.74
2017-07-11T18:23:39.377Z,37.85
2017-07-11T18:26:08.826Z,38.50
2017-07-11T18:28:38.269Z,39.20
2017-07-11T18:31:07.730Z,39.24
2017-07-11T18:33:37.284Z,39.54
2017-07-11T18:36:06.846Z,40.38
2017-07-11T18:38:36.314Z,40.98
2017-07-11T18:41:06.049Z,40.72
2017-07-11T18:43:35.573Z,41.32
2017-07-11T18:46:05.091Z,42.96
2017-07-11T18:48:34.532Z,42.57
2017-07-11T18:51:03.978Z,42.71
2017-07-11T18:53:33.439Z,42.73
2017-07-11T18:56:02.897Z,43.34
2017-07-11T18:58:32.348Z,44.09
2017-07-11T19:01:01.793Z,46.29
2017-07-11T19:03:31.249Z,48.24
2017-07-11T19:06:00.731Z,50.13
2017-07-11T19:08:30.169Z,51.21
2017-07-11T19:10:59.631Z,52.25
2017-07-11T19:13:29.098Z,53.63
2017-07-11T19:15:58.549Z,53.31
2017-07-11T19:18:28.020Z,53.10
2017-07-11T19:20:57.476Z,54.72
2017-07-11T19:23:26.937Z,54.42
2017-07-11T19:25:56.388Z,57.39
2017-07-11T19:28:25.862Z,57.48
2017-07-11T19:30:55.352Z,57.69
2017-07-11T19:33:24.807Z,57.35
2017-07-11T19:35:54.273Z,58.14
2017-07-11T19:38:23.750Z,58.69
2017-07-11T19:40:53.200Z,59.80
2017-07-11T19:43:22.657Z,60.29
2017-07-11T19:45:52.267Z,59.06
2017-07-11T19:48:21.734Z,59.72
2017-07-11T19:50:51.190Z,60.45
2017-07-11T19:53:20.707Z,60.85
2017-07-11T19:55:50.148Z,61.43
2017-07-11T19:58:19.590Z,61.90
2017-07-11T20:00:49.060Z,63.19
2017-07-11T20:03:18.506Z,63.19
2017-07-11T20:05:47.967Z,64.27
2017-07-11T20:08:17.428Z,64.21
2017-07-11T20:10:46.884Z,64.87
2017-07-11T20:13:16.335Z,65.25
2017-07-11T20:15:45.787Z,65.03
2017-07-11T20:18:15.238Z,65.57
2017-07-11T20:20:44.687Z,65.80
2017-07-11T20:23:14.133Z,64.60
2017-07-11T20:25:43.579Z,63.45
2017-07-11T20:28:13.018Z,63.35
2017-07-11T20:30:42.468Z,63.77
2017-07-11T20:33:11.965Z,63.01
2017-07-11T20:35:41.387Z,63.33
2017-07-11T20:38:10.846Z,63.14
2017-07-11T20:40:40.299Z,63.35
2017-07-11T20:43:09.758Z,63.50
2017-07-11T20:45:39.225Z,64.53
2017-07-11T20:48:08.659Z,64.81
2017-07-11T20:50:38.156Z,65.06
2017-07-11T20:53:07.601Z,65.44
2017-07-11T20:55:37.054Z,65.41
2017-07-11T20:58:06.508Z,66.83
2017-07-11T21:00:35.976Z,67.01
2017-07-11T21:03:05.452Z,67.15
2017-07-11T21:05:34.886Z,66.92
2017-07-11T21:08:04.346Z,66.55
2017-07-11T21:10:33.801Z,66.33
2017-07-11T21:13:03.252Z,66.39
2017-07-11T21:15:32.723Z,66.21
2017-07-11T21:18:02.178Z,66.16
2017-07-11T21:20:31.620Z,66.93
2017-07-11T21:23:01.090Z,67.19
2017-07-11T21:25:30.663Z,67.61
2017-07-11T21:28:00.115Z,69.80
2017-07-11T21:30:29.566Z,70.41
2017-07-11T21:32:59.012Z,70.63
2017-07-11T21:35:28.458Z,70.43
2017-07-11T21:37:57.933Z,69.90
2017-07-11T21:40:27.404Z,68.87
2017-07-11T21:42:56.864Z,68.63
2017-07-11T21:45:26.338Z,68.25
2017-07-11T21:47:55.787Z,67.23
2017-07-11T21:50:25.243Z,66.35
2017-07-11T21:52:54.686Z,63.12
2017-07-11T21:55:24.117Z,60.79
2017-07-11T21:57:53.570Z,59.80
2017-07-11T22:00:23.130Z,59.54
2017-07-11T22:02:52.409Z,58.78
2017-07-11T22:05:21.855Z,58.22
2017-07-11T22:07:51.306Z,58.10
2017-07-11T22:10:20.755Z,58.61
2017-07-11T22:12:50.201Z,58.58
2017-07-11T22:15:19.667Z,58.81
2017-07-11T22:17:49.360Z,58.86
2017-07-11T22:20:18.809Z,59.16
2017-07-11T22:22:48.266Z,59.60
2017-07-11T22:25:17.733Z,60.28
2017-07-11T22:27:47.183Z,60.82
2017-07-11T22:30:16.635Z,61.07
2017-07-11T22:32:46.080Z,61.27
2017-07-11T22:35:15.522Z,59.72
2017-07-11T22:37:44.969Z,59.14
2017-07-11T22:40:15.374Z,60.93
2017-07-11T22:42:44.829Z,61.24
2017-07-11T22:45:14.273Z,61.77
2017-07-11T22:47:43.735Z,62.99
2017-07-11T22:50:13.172Z,63.41
2017-07-11T22:52:42.609Z,64.06
2017-07-11T22:55:11.917Z,64.05
2017-07-11T22:57:41.381Z,64.72
2017-07-11T23:00:10.818Z,65.61
2017-07-11T23:02:40.387Z,65.50
2017-07-11T23:05:09.846Z,65.89
2017-07-11T23:07:39.298Z,66.22
2017-07-11T23:10:08.765Z,66.82
2017-07-11T23:12:38.217Z,67.46
2017-07-11T23:15:07.678Z,67.02
2017-07-11T23:17:37.126Z,67.25
2017-07-11T23:20:06.570Z,67.30
2017-07-11T23:22:36.053Z,67.74
2017-07-11T23:25:05.534Z,68.27
2017-07-11T23:27:34.972Z,66.73
2017-07-11T23:30:04.423Z,65.21
2017-07-11T23:32:33.866Z,65.36
2017-07-11T23:35:03.305Z,65.58
2017-07-11T23:37:32.577Z,64.46
2017-07-11T23:40:02.052Z,65.80
2017-07-11T23:42:31.557Z,67.75
2017-07-11T23:45:00.994Z,68.94
2017-07-11T23:47:30.429Z,69.75
2017-07-11T23:49:59.879Z,70.34
2017-07-11T23:52:29.330Z,70.95
2017-07-11T23:54:58.785Z,69.64
2017-07-11T23:57:28.241Z,70.04
2017-07-11T23:59:57.692Z,70.45
